createdAt,value
2023-02-19T00:00:33.280Z,5.20
2023-02-19T00:03:56.642Z,6.20
2023-02-19T00:06:58.263Z,5.40
2023-02-19T00:13:01.527Z,7.50
2023-02-19T00:16:07.652Z,7.80
2023-02-19T00:19:13.816Z,7.60
2023-02-19T00:22:15.586Z,7.00
2023-02-19T00:25:17.402Z,7.00
2023-02-19T00:31:25.703Z,4.90
2023-02-19T00:34:27.566Z,4.60
2023-02-19T00:37:29.603Z,4.40
2023-02-19T00:40:31.311Z,4.50
2023-02-19T00:43:32.834Z,5.50
2023-02-19T00:49:37.316Z,6.80
2023-02-19T00:52:39.086Z,7.10
2023-02-19T00:55:40.650Z,6.50
2023-02-19T01:01:44.683Z,5.30
2023-02-19T01:04:46.601Z,5.20
2023-02-19T01:07:48.408Z,5.60
2023-02-19T01:10:50.170Z,7.10
2023-02-19T01:13:51.803Z,7.00
2023-02-19T01:16:53.422Z,6.70
2023-02-19T01:19:58.026Z,6.00
2023-02-19T01:26:11.854Z,4.90
2023-02-19T01:29:13.441Z,4.60
2023-02-19T01:35:16.726Z,7.50
2023-02-19T01:38:18.260Z,5.00
2023-02-19T01:44:22.660Z,5.10
2023-02-19T01:50:28.531Z,5.00
2023-02-19T01:53:33.959Z,5.50
2023-02-19T01:56:38.404Z,5.10
2023-02-19T01:59:40.431Z,5.20
2023-02-19T02:02:44.432Z,4.80
2023-02-19T02:05:53.974Z,5.20
2023-02-19T02:08:57.392Z,5.00
2023-02-19T02:11:58.957Z,4.80
2023-02-19T02:15:00.567Z,4.20
2023-02-19T02:21:12.004Z,4.30
2023-02-19T02:24:32.542Z,4.20
2023-02-19T02:27:43.398Z,4.60
2023-02-19T02:30:48.968Z,5.40
2023-02-19T02:33:54.004Z,5.60
2023-02-19T02:36:56.803Z,6.20
2023-02-19T02:39:58.996Z,6.80
2023-02-19T02:43:00.988Z,7.00
2023-02-19T02:46:02.764Z,7.40
2023-02-19T02:49:18.057Z,7.40
2023-02-19T02:52:19.932Z,6.90
2023-02-19T02:55:22.215Z,7.00
2023-02-19T02:58:25.071Z,7.00
2023-02-19T03:01:33.231Z,6.60
2023-02-19T03:04:47.886Z,7.40
2023-02-19T03:07:53.323Z,7.00
2023-02-19T03:11:07.121Z,7.30
2023-02-19T03:14:16.665Z,6.60
2023-02-19T03:17:30.154Z,6.50
2023-02-19T03:20:34.514Z,6.60
2023-02-19T03:23:37.486Z,7.00
2023-02-19T03:26:39.954Z,6.60
2023-02-19T03:29:43.280Z,6.90
2023-02-19T03:33:17.452Z,6.60
2023-02-19T03:36:20.459Z,7.30
2023-02-19T03:39:22.918Z,7.30
2023-02-19T03:42:47.895Z,8.40
2023-02-19T03:46:08.137Z,8.30
2023-02-19T03:49:20.755Z,8.80
2023-02-19T03:52:42.239Z,8.80
2023-02-19T03:56:02.826Z,8.60
2023-02-19T03:59:32.635Z,8.70
2023-02-19T04:02:55.211Z,9.70
2023-02-19T04:06:03.155Z,11.40
2023-02-19T04:09:07.542Z,13.40
2023-02-19T04:12:11.358Z,13.30
2023-02-19T04:15:16.278Z,11.60
2023-02-19T04:18:24.398Z,12.40
2023-02-19T04:21:29.133Z,13.40
2023-02-19T04:24:40.469Z,15.00
2023-02-19T04:27:45.165Z,16.30
2023-02-19T04:30:46.766Z,15.50
2023-02-19T04:33:48.870Z,15.30
2023-02-19T04:36:50.406Z,12.50
2023-02-19T04:42:53.698Z,16.10
2023-02-19T04:45:59.886Z,15.80
2023-02-19T04:49:01.610Z,15.30
2023-02-19T04:55:05.348Z,15.30
2023-02-19T04:58:06.933Z,14.40
2023-02-19T05:04:11.122Z,13.40
2023-02-19T05:07:12.877Z,12.40
2023-02-19T05:13:15.964Z,11.80
2023-02-19T05:19:20.322Z,12.40
2023-02-19T05:25:23.440Z,11.80
2023-02-19T05:28:25.732Z,10.60
2023-02-19T05:31:27.668Z,12.30
2023-02-19T05:34:29.636Z,13.20
2023-02-19T05:37:31.237Z,13.20
2023-02-19T05:43:34.423Z,13.90
2023-02-19T05:49:37.602Z,12.10
2023-02-19T05:52:39.176Z,12.30
2023-02-19T05:55:40.753Z,11.80
2023-02-19T06:01:44.413Z,11.70
2023-02-19T06:04:45.924Z,12.20
2023-02-19T06:07:47.456Z,11.40
2023-02-19T06:10:49.055Z,10.60
2023-02-19T06:13:50.752Z,10.80
2023-02-19T06:16:52.354Z,11.20
2023-02-19T06:22:55.619Z,10.50
2023-02-19T06:26:18.850Z,10.00
2023-02-19T06:29:20.468Z,10.00
2023-02-19T06:35:23.698Z,10.20
2023-02-19T06:38:25.402Z,9.70
2023-02-19T06:41:26.978Z,10.10
2023-02-19T06:47:33.844Z,9.20
2023-02-19T06:50:35.460Z,9.40
2023-02-19T06:53:37.164Z,8.90
2023-02-19T06:59:41.132Z,8.20
2023-02-19T07:02:42.641Z,8.40
2023-02-19T07:08:45.887Z,8.90
2023-02-19T07:14:49.030Z,9.10
2023-02-19T07:20:52.086Z,10.60
2023-02-19T07:26:55.580Z,10.60
2023-02-19T07:29:57.115Z,11.50
2023-02-19T07:32:58.663Z,11.50
2023-02-19T07:36:00.344Z,11.70
2023-02-19T07:42:03.697Z,12.10
2023-02-19T07:48:06.883Z,12.30
2023-02-19T07:54:12.618Z,13.30
2023-02-19T08:00:15.991Z,14.10
2023-02-19T08:03:17.574Z,12.80
2023-02-19T08:09:20.650Z,14.90
2023-02-19T08:12:22.148Z,14.20
2023-02-19T08:18:27.255Z,14.20
2023-02-19T08:21:28.977Z,14.80
2023-02-19T08:24:30.583Z,15.90
2023-02-19T08:27:32.379Z,17.00
2023-02-19T08:30:34.485Z,15.70
2023-02-19T08:33:36.989Z,16.20
2023-02-19T08:36:38.663Z,17.10
2023-02-19T08:39:40.648Z,17.70
2023-02-19T08:45:45.154Z,16.00
2023-02-19T08:48:46.886Z,16.20
2023-02-19T08:51:48.460Z,15.20
2023-02-19T09:00:53.354Z,14.00
2023-02-19T09:06:56.567Z,15.50
2023-02-19T09:09:58.547Z,15.70
2023-02-19T09:13:00.161Z,13.60
2023-02-19T09:19:04.745Z,13.70
2023-02-19T09:22:06.650Z,15.00
2023-02-19T09:25:08.249Z,11.50
2023-02-19T09:28:09.844Z,11.30
2023-02-19T09:31:14.885Z,12.00
2023-02-19T09:34:16.886Z,10.60
2023-02-19T09:37:18.524Z,15.70
2023-02-19T09:40:20.482Z,16.40
2023-02-19T09:43:23.486Z,13.10
2023-02-19T09:46:36.105Z,11.90
2023-02-19T09:49:40.820Z,14.20
2023-02-19T09:52:47.092Z,11.00
2023-02-19T09:55:49.398Z,9.30
2023-02-19T09:58:55.320Z,6.20
2023-02-19T10:02:17.220Z,4.20
2023-02-19T10:05:18.963Z,4.10
2023-02-19T10:08:21.364Z,4.20
2023-02-19T10:11:25.840Z,4.20
2023-02-19T10:14:30.303Z,4.30
2023-02-19T10:17:32.795Z,4.30
2023-02-19T10:20:34.344Z,3.90
2023-02-19T10:23:35.871Z,4.10
2023-02-19T10:26:37.396Z,4.10
2023-02-19T10:29:39.183Z,4.30
2023-02-19T10:33:00.390Z,4.90
2023-02-19T10:36:06.895Z,5.70
2023-02-19T10:39:31.289Z,5.80
2023-02-19T10:42:32.842Z,6.60
2023-02-19T10:48:46.254Z,5.00
2023-02-19T10:51:47.911Z,5.30
2023-02-19T10:54:52.453Z,5.20
2023-02-19T10:57:54.565Z,4.90
2023-02-19T11:01:14.129Z,5.50
2023-02-19T11:04:18.266Z,5.50
2023-02-19T11:07:20.037Z,4.50
2023-02-19T11:10:39.658Z,4.40
2023-02-19T11:13:42.303Z,4.10
2023-02-19T11:16:47.009Z,4.00
2023-02-19T11:19:52.271Z,3.90
2023-02-19T11:22:58.123Z,4.90
2023-02-19T11:26:04.279Z,4.30
2023-02-19T11:29:18.166Z,4.60
2023-02-19T11:32:28.523Z,4.10
2023-02-19T11:35:30.213Z,3.60
2023-02-19T11:38:31.750Z,4.10
2023-02-19T11:41:55.218Z,3.80
2023-02-19T11:45:18.378Z,3.80
2023-02-19T11:48:36.842Z,3.40
2023-02-19T11:51:54.135Z,3.70
2023-02-19T11:55:04.628Z,4.30
2023-02-19T11:58:27.554Z,3.90
2023-02-19T12:01:45.407Z,4.40
2023-02-19T12:04:52.843Z,4.00
2023-02-19T12:08:21.672Z,4.60
2023-02-19T12:11:36.849Z,4.70
2023-02-19T12:14:51.598Z,5.00
2023-02-19T12:18:02.122Z,4.90
2023-02-19T12:21:29.423Z,4.40
2023-02-19T12:25:19.809Z,4.40
2023-02-19T12:28:43.355Z,4.30
2023-02-19T12:32:10.735Z,4.70
2023-02-19T12:35:29.680Z,4.70
2023-02-19T12:38:36.114Z,5.00
2023-02-19T12:42:09.477Z,4.90
2023-02-19T12:45:19.768Z,4.30
2023-02-19T12:48:32.290Z,4.40
2023-02-19T12:51:33.815Z,4.10
2023-02-19T12:54:41.824Z,4.10
2023-02-19T12:57:43.497Z,4.10
2023-02-19T13:03:51.931Z,4.70
2023-02-19T13:07:08.834Z,4.90
2023-02-19T13:10:19.354Z,5.00
2023-02-19T13:13:29.245Z,5.40
2023-02-19T13:16:31.032Z,5.90
2023-02-19T13:19:33.600Z,5.70
2023-02-19T13:22:45.926Z,5.60
2023-02-19T13:26:15.801Z,6.00
2023-02-19T13:29:32.832Z,5.30
2023-02-19T13:32:57.978Z,5.10
2023-02-19T13:36:06.226Z,6.30
2023-02-19T13:42:34.863Z,5.90
2023-02-19T13:45:43.671Z,5.90
2023-02-19T13:48:45.413Z,6.70
2023-02-19T13:51:48.679Z,7.70
2023-02-19T13:54:50.306Z,6.40
2023-02-19T13:57:51.916Z,6.70
2023-02-19T14:04:08.027Z,7.30
2023-02-19T14:07:09.624Z,7.00
2023-02-19T14:10:14.432Z,6.60
2023-02-19T14:13:55.162Z,6.80
2023-02-19T14:16:59.446Z,6.30
2023-02-19T14:20:03.777Z,6.00
2023-02-19T14:23:16.838Z,5.20
2023-02-19T14:26:18.681Z,5.50
2023-02-19T14:29:20.268Z,5.20
2023-02-19T14:32:21.953Z,5.20
2023-02-19T14:38:35.668Z,4.90
2023-02-19T14:41:39.431Z,4.50
2023-02-19T14:44:52.405Z,5.30
2023-02-19T14:47:55.857Z,5.50
2023-02-19T14:51:02.912Z,6.50
2023-02-19T14:54:15.321Z,6.30
2023-02-19T14:57:21.021Z,6.90
2023-02-19T15:00:22.727Z,7.30
2023-02-19T15:03:36.335Z,7.50
2023-02-19T15:06:37.953Z,6.80
2023-02-19T15:12:55.109Z,5.00
2023-02-19T15:15:57.408Z,6.10
2023-02-19T15:18:59.991Z,6.40
2023-02-19T15:22:02.172Z,6.30
2023-02-19T15:25:05.493Z,7.70
2023-02-19T15:28:20.118Z,7.00
2023-02-19T15:31:21.891Z,6.30
2023-02-19T15:34:24.877Z,7.30
2023-02-19T15:37:29.235Z,6.70
2023-02-19T15:40:31.311Z,8.10
2023-02-19T15:43:47.031Z,7.60
2023-02-19T15:46:49.018Z,8.50
2023-02-19T15:50:05.045Z,7.10
2023-02-19T15:53:19.271Z,8.30
2023-02-19T15:56:23.000Z,8.60
2023-02-19T15:59:30.789Z,8.60
2023-02-19T16:02:32.962Z,10.20
2023-02-19T16:05:34.553Z,9.70
2023-02-19T16:08:38.344Z,9.20
2023-02-19T16:11:48.408Z,9.30
2023-02-19T16:14:50.199Z,11.10
2023-02-19T16:17:51.873Z,12.70
2023-02-19T16:20:53.430Z,12.20
2023-02-19T16:27:27.981Z,13.60
2023-02-19T16:30:32.064Z,13.70
2023-02-19T16:33:44.281Z,17.80
2023-02-19T16:36:45.949Z,19.80
2023-02-19T16:42:49.018Z,14.10
2023-02-19T16:45:50.551Z,15.50
2023-02-19T16:51:53.988Z,12.70
2023-02-19T16:57:57.125Z,13.80
2023-02-19T17:00:59.035Z,10.70
2023-02-19T17:10:04.407Z,9.90
2023-02-19T17:13:05.987Z,8.50
2023-02-19T17:16:08.278Z,10.20
2023-02-19T17:19:15.927Z,8.60
2023-02-19T17:22:17.470Z,7.70
2023-02-19T17:25:19.059Z,7.30
2023-02-19T17:28:20.589Z,7.40
2023-02-19T17:31:22.309Z,7.50
2023-02-19T17:37:25.435Z,6.90
2023-02-19T17:40:33.755Z,6.30
2023-02-19T17:43:36.136Z,6.50
2023-02-19T17:46:38.314Z,7.40
2023-02-19T17:49:39.878Z,7.60
2023-02-19T17:52:41.809Z,7.00
2023-02-19T17:55:43.587Z,7.00
2023-02-19T17:58:45.517Z,6.80
2023-02-19T18:01:47.121Z,7.40
2023-02-19T18:04:48.673Z,7.20
2023-02-19T18:07:50.976Z,7.00
2023-02-19T18:10:52.753Z,7.00
2023-02-19T18:16:55.931Z,7.40
2023-02-19T18:19:57.491Z,7.50
2023-02-19T18:22:59.325Z,8.00
2023-02-19T18:26:01.301Z,7.50
2023-02-19T18:29:02.830Z,7.00
2023-02-19T18:32:04.613Z,7.00
2023-02-19T18:35:07.220Z,8.20
2023-02-19T18:38:08.843Z,9.80
2023-02-19T18:41:14.516Z,9.30
2023-02-19T18:44:22.125Z,8.50
2023-02-19T18:47:25.604Z,9.00
2023-02-19T18:50:27.217Z,8.40
2023-02-19T18:53:31.235Z,8.10
2023-02-19T18:56:40.528Z,8.20
2023-02-19T18:59:45.837Z,8.80
2023-02-19T19:02:51.332Z,7.90
2023-02-19T19:05:53.407Z,8.80
2023-02-19T19:08:55.078Z,8.80
2023-02-19T19:11:56.713Z,9.20
2023-02-19T19:14:58.305Z,8.60
2023-02-19T19:18:00.135Z,10.10
2023-02-19T19:21:01.826Z,10.60
2023-02-19T19:24:03.801Z,9.90
2023-02-19T19:27:05.609Z,11.50
2023-02-19T19:33:09.249Z,9.80
2023-02-19T19:36:11.430Z,9.70
2023-02-19T19:39:13.307Z,9.90
2023-02-19T19:42:14.937Z,10.20
2023-02-19T19:45:16.539Z,10.90
2023-02-19T19:48:18.232Z,11.60
2023-02-19T19:51:19.806Z,11.10
2023-02-19T19:54:21.427Z,12.60
2023-02-19T19:57:23.000Z,12.00
2023-02-19T20:00:24.667Z,11.50
2023-02-19T20:03:26.526Z,12.20
2023-02-19T20:09:30.245Z,10.60
2023-02-19T20:12:31.853Z,11.20
2023-02-19T20:15:33.521Z,10.50
2023-02-19T20:18:35.011Z,10.50
2023-02-19T20:21:36.589Z,10.00
2023-02-19T20:24:38.481Z,10.80
2023-02-19T20:27:40.040Z,10.40
2023-02-19T20:30:41.659Z,10.40
2023-02-19T20:33:43.349Z,9.70
2023-02-19T20:39:47.083Z,10.60
2023-02-19T20:42:48.703Z,10.40
2023-02-19T20:45:50.418Z,10.00
2023-02-19T20:51:56.455Z,10.00
2023-02-19T20:54:58.088Z,11.10
2023-02-19T21:01:01.281Z,13.30
2023-02-19T21:04:02.831Z,15.90
2023-02-19T21:07:04.735Z,14.40
2023-02-19T21:10:06.888Z,14.30
2023-02-19T21:13:08.468Z,12.70
2023-02-19T21:16:10.229Z,13.30
2023-02-19T21:19:12.194Z,13.10
2023-02-19T21:22:13.877Z,15.20
2023-02-19T21:25:15.512Z,13.80
2023-02-19T21:28:16.995Z,13.30
2023-02-19T21:31:20.492Z,13.10
2023-02-19T21:34:27.467Z,12.20
2023-02-19T21:37:29.812Z,13.30
2023-02-19T21:40:31.379Z,13.70
2023-02-19T21:43:32.910Z,13.40
2023-02-19T21:46:34.503Z,12.70
2023-02-19T21:49:36.345Z,13.40
2023-02-19T21:52:38.038Z,13.70
2023-02-19T21:55:41.152Z,13.20
2023-02-19T21:58:46.655Z,12.40
2023-02-19T22:04:53.286Z,12.80
2023-02-19T22:07:54.774Z,13.80
2023-02-19T22:10:56.311Z,14.60
2023-02-19T22:13:58.129Z,14.70
2023-02-19T22:16:59.795Z,14.20
2023-02-19T22:20:01.468Z,13.90
2023-02-19T22:26:04.809Z,14.40
2023-02-19T22:32:07.919Z,14.60
2023-02-19T22:35:09.568Z,15.20
2023-02-19T22:38:11.163Z,15.10
2023-02-19T22:41:12.942Z,14.80
2023-02-19T22:47:18.442Z,15.20
2023-02-19T22:50:21.565Z,14.70
2023-02-19T22:53:23.128Z,15.60
2023-02-19T22:56:28.692Z,15.70
2023-02-19T22:59:30.422Z,16.30
2023-02-19T23:05:33.734Z,16.10
2023-02-19T23:08:35.287Z,17.40
2023-02-19T23:11:38.147Z,16.30
2023-02-19T23:14:39.706Z,18.10
2023-02-19T23:17:41.493Z,17.90
2023-02-19T23:20:43.078Z,16.80
2023-02-19T23:23:45.581Z,17.70
2023-02-19T23:26:50.498Z,17.10
2023-02-19T23:29:52.333Z,18.00
2023-02-19T23:35:55.431Z,16.50
2023-02-19T23:38:57.070Z,17.20
2023-02-19T23:41:58.693Z,16.50
2023-02-19T23:45:00.257Z,18.50
2023-02-19T23:48:02.114Z,16.30
2023-02-19T23:51:03.787Z,18.30
2023-02-19T23:57:07.337Z,18.20
